createdAt,value
2023-05-22T00:07:40.480Z,856.25
2023-05-22T00:17:42.222Z,853.05
2023-05-22T00:27:43.702Z,845.72
2023-05-22T00:37:46.159Z,872.60
2023-05-22T00:47:47.800Z,916.92
2023-05-22T00:57:50.221Z,929.63
2023-05-22T01:07:51.668Z,938.10
2023-05-22T01:17:59.427Z,999.90
2023-05-22T01:28:37.924Z,999.90
2023-05-22T01:38:39.328Z,999.90
2023-05-22T01:48:40.754Z,999.90
2023-05-22T01:58:46.379Z,999.90
2023-05-22T02:08:47.950Z,999.90
2023-05-22T02:18:49.578Z,999.90
2023-05-22T02:28:51.034Z,999.90
2023-05-22T02:38:52.746Z,999.90
2023-05-22T02:48:54.180Z,999.90
2023-05-22T02:58:56.867Z,999.90
2023-05-22T03:08:58.299Z,999.90
2023-05-22T03:19:12.226Z,999.90
2023-05-22T03:29:13.767Z,999.90
2023-05-22T03:39:15.252Z,999.90
2023-05-22T03:49:16.660Z,999.90
2023-05-22T03:59:18.132Z,983.67
2023-05-22T04:09:19.741Z,927.75
2023-05-22T04:19:21.747Z,999.90
2023-05-22T04:29:24.234Z,999.90
2023-05-22T04:39:26.102Z,999.90
2023-05-22T04:49:28.537Z,999.90
2023-05-22T04:59:37.774Z,999.90
2023-05-22T05:09:39.223Z,999.90
2023-05-22T05:19:40.833Z,999.90
2023-05-22T05:29:42.485Z,999.90
2023-05-22T05:39:43.905Z,878.95
2023-05-22T05:49:45.646Z,863.60
2023-05-22T05:59:47.145Z,859.10
2023-05-22T06:09:48.734Z,963.30
2023-05-22T06:19:50.316Z,893.97
2023-05-22T06:29:51.918Z,897.22
2023-05-22T06:39:53.354Z,999.90
2023-05-22T06:49:54.776Z,999.90
2023-05-22T06:59:56.193Z,999.90
2023-05-22T07:09:57.613Z,999.90
2023-05-22T07:19:59.046Z,999.90
2023-05-22T07:30:00.483Z,929.38
2023-05-22T07:40:03.210Z,999.90
2023-05-22T07:50:05.166Z,999.90
2023-05-22T08:00:13.556Z,903.03
2023-05-22T08:10:17.274Z,927.50
2023-05-22T08:20:18.799Z,857.53
2023-05-22T08:30:20.485Z,839.70
2023-05-22T08:40:21.906Z,883.88
2023-05-22T08:50:24.424Z,917.72
2023-05-22T09:00:25.905Z,999.90
2023-05-22T09:10:27.532Z,895.70
2023-05-22T09:20:28.959Z,999.90
2023-05-22T09:30:30.398Z,999.90
2023-05-22T09:40:34.661Z,999.90
2023-05-22T09:50:36.686Z,999.90
2023-05-22T10:00:38.879Z,999.47
2023-05-22T10:10:41.204Z,900.35
2023-05-22T10:20:43.263Z,897.38
2023-05-22T10:30:55.502Z,983.45
2023-05-22T10:40:56.928Z,999.90
2023-05-22T10:50:59.993Z,999.90
2023-05-22T11:01:10.811Z,999.90
2023-05-22T11:11:12.512Z,999.90
2023-05-22T11:21:14.037Z,999.90
2023-05-22T11:31:15.644Z,999.90
2023-05-22T11:41:17.252Z,980.80
2023-05-22T11:51:21.502Z,999.90
2023-05-22T12:01:22.922Z,999.90
2023-05-22T12:11:26.116Z,999.90
2023-05-22T12:21:27.755Z,999.90
2023-05-22T12:31:39.462Z,909.70
2023-05-22T12:41:40.909Z,936.55
2023-05-22T12:51:42.461Z,967.15
2023-05-22T13:01:43.935Z,990.28
2023-05-22T13:11:45.473Z,999.90
2023-05-22T13:21:47.268Z,999.90
2023-05-22T13:31:48.746Z,999.90
2023-05-22T13:41:52.401Z,999.90
2023-05-22T13:51:53.818Z,998.90
2023-05-22T14:01:55.271Z,817.78
2023-05-22T14:11:57.755Z,834.83
2023-05-22T14:21:59.322Z,830.38
2023-05-22T14:32:04.239Z,801.35
2023-05-22T14:42:05.845Z,804.05
2023-05-22T14:52:07.422Z,838.55
2023-05-22T15:02:09.073Z,884.95
2023-05-22T15:12:10.564Z,917.35
2023-05-22T15:22:19.255Z,842.05
2023-05-22T15:32:21.486Z,909.00
2023-05-22T15:42:22.903Z,962.22
2023-05-22T15:52:24.713Z,760.38
2023-05-22T16:02:26.887Z,744.75
2023-05-22T16:12:28.437Z,722.88
2023-05-22T16:22:46.722Z,732.03
2023-05-22T16:32:49.818Z,719.70
2023-05-22T16:42:51.610Z,709.35
2023-05-22T16:52:53.098Z,724.50
2023-05-22T17:02:55.692Z,764.25
2023-05-22T17:12:57.230Z,731.53
2023-05-22T17:22:58.660Z,751.47
2023-05-22T17:33:00.373Z,758.67
2023-05-22T17:43:03.166Z,684.50
2023-05-22T17:53:04.604Z,653.17
2023-05-22T18:03:06.987Z,638.35
2023-05-22T18:13:08.713Z,631.50
2023-05-22T18:23:10.160Z,602.95
2023-05-22T18:33:14.242Z,537.17
2023-05-22T18:43:15.838Z,509.58
2023-05-22T18:53:17.447Z,515.47
2023-05-22T19:03:19.416Z,518.67
2023-05-22T19:13:20.840Z,497.75
2023-05-22T19:23:22.284Z,739.72
2023-05-22T19:33:25.594Z,797.65
2023-05-22T19:43:27.058Z,633.83
2023-05-22T19:53:28.725Z,699.00
2023-05-22T20:03:30.305Z,689.10
2023-05-22T20:13:31.844Z,576.47
2023-05-22T20:23:33.267Z,566.13
2023-05-22T20:33:34.786Z,697.17
2023-05-22T20:43:36.484Z,875.70
2023-05-22T20:53:37.917Z,685.67
2023-05-22T21:03:39.571Z,570.30
2023-05-22T21:13:41.039Z,572.72
2023-05-22T21:23:43.282Z,620.03
2023-05-22T21:33:45.170Z,633.65
2023-05-22T21:43:47.394Z,595.22
2023-05-22T21:53:49.011Z,626.53
2023-05-22T22:03:50.567Z,670.22
2023-05-22T22:13:52.180Z,689.28
2023-05-22T22:23:54.094Z,634.65
2023-05-22T22:33:55.949Z,762.83
2023-05-22T22:43:57.367Z,673.50
2023-05-22T22:53:58.887Z,689.30
2023-05-22T23:04:00.611Z,894.65
2023-05-22T23:14:03.699Z,767.45
2023-05-22T23:24:05.336Z,822.08
2023-05-22T23:34:06.760Z,838.80
2023-05-22T23:44:08.191Z,848.90
2023-05-22T23:54:09.658Z,723.05
